createdAt,value
2023-04-16T00:00:46.049Z,55.89
2023-04-16T00:03:12.456Z,55.71
2023-04-16T00:05:38.768Z,57.76
2023-04-16T00:08:05.048Z,57.25
2023-04-16T00:10:31.324Z,56.23
2023-04-16T00:12:57.604Z,56.19
2023-04-16T00:15:23.849Z,56.03
2023-04-16T00:17:50.131Z,53.37
2023-04-16T00:20:16.442Z,53.33
2023-04-16T00:22:42.718Z,56.15
2023-04-16T00:25:08.993Z,57.28
2023-04-16T00:27:35.230Z,58.01
2023-04-16T00:30:01.485Z,58.85
2023-04-16T00:32:27.782Z,59.17
2023-04-16T00:34:54.035Z,59.52
2023-04-16T00:37:20.293Z,60.98
2023-04-16T00:39:46.514Z,60.58
2023-04-16T00:42:12.768Z,61.86
2023-04-16T00:44:39.043Z,60.82
2023-04-16T00:47:05.310Z,60.69
2023-04-16T00:49:31.539Z,60.88
2023-04-16T00:51:57.797Z,62.28
2023-04-16T00:54:24.061Z,62.97
2023-04-16T00:56:50.328Z,62.35
2023-04-16T00:59:16.560Z,62.11
2023-04-16T01:01:42.883Z,57.87
2023-04-16T01:04:09.305Z,59.64
2023-04-16T01:06:35.622Z,60.29
2023-04-16T01:09:01.908Z,59.12
2023-04-16T01:11:28.178Z,59.60
2023-04-16T01:13:54.464Z,57.31
2023-04-16T01:16:20.775Z,56.43
2023-04-16T01:19:02.259Z,54.86
2023-04-16T01:21:28.556Z,54.19
2023-04-16T01:23:54.889Z,55.03
2023-04-16T01:26:21.140Z,54.17
2023-04-16T01:28:47.419Z,54.00
2023-04-16T01:31:13.743Z,54.22
2023-04-16T01:33:40.021Z,54.29
2023-04-16T01:36:06.251Z,58.09
2023-04-16T01:38:32.493Z,56.22
2023-04-16T01:40:58.767Z,54.96
2023-04-16T01:43:25.051Z,56.00
2023-04-16T01:45:51.343Z,56.33
2023-04-16T01:48:17.634Z,56.32
2023-04-16T01:50:43.897Z,58.00
2023-04-16T01:53:10.152Z,59.25
2023-04-16T01:55:36.381Z,58.08
2023-04-16T01:58:02.626Z,55.92
2023-04-16T02:00:28.846Z,54.73
2023-04-16T02:02:55.252Z,56.76
2023-04-16T02:05:21.599Z,57.22
2023-04-16T02:07:47.861Z,58.85
2023-04-16T02:10:14.126Z,58.08
2023-04-16T02:12:40.377Z,58.53
2023-04-16T02:15:06.606Z,57.92
2023-04-16T02:17:32.879Z,60.19
2023-04-16T02:19:59.126Z,58.95
2023-04-16T02:22:25.364Z,56.75
2023-04-16T02:24:51.639Z,54.86
2023-04-16T02:27:17.880Z,54.47
2023-04-16T02:29:44.107Z,55.90
2023-04-16T02:32:10.543Z,57.49
2023-04-16T02:34:36.937Z,56.13
2023-04-16T02:37:03.175Z,55.98
2023-04-16T02:39:29.434Z,55.15
2023-04-16T02:41:55.710Z,54.49
2023-04-16T02:44:21.976Z,54.35
2023-04-16T02:46:48.205Z,54.70
2023-04-16T02:49:14.456Z,57.64
2023-04-16T02:51:40.716Z,59.33
2023-04-16T02:54:06.957Z,55.42
2023-04-16T02:56:33.217Z,54.64
2023-04-16T02:58:59.484Z,56.30
2023-04-16T03:01:25.888Z,58.48
2023-04-16T03:03:52.141Z,59.03
2023-04-16T03:06:18.401Z,59.20
2023-04-16T03:08:44.665Z,59.25
2023-04-16T03:11:10.924Z,60.39
2023-04-16T03:13:37.221Z,58.63
2023-04-16T03:16:03.640Z,55.24
2023-04-16T03:18:29.975Z,58.68
2023-04-16T03:20:56.224Z,57.36
2023-04-16T03:23:22.466Z,59.50
2023-04-16T03:25:48.716Z,58.88
2023-04-16T03:28:14.958Z,57.56
2023-04-16T03:30:41.243Z,57.55
2023-04-16T03:33:07.536Z,56.93
2023-04-16T03:35:33.793Z,59.27
2023-04-16T03:38:00.046Z,58.17
2023-04-16T03:40:26.315Z,59.39
2023-04-16T03:42:52.575Z,58.53
2023-04-16T03:45:18.807Z,59.74
2023-04-16T03:47:45.204Z,59.15
2023-04-16T03:50:11.564Z,58.36
2023-04-16T03:52:37.931Z,58.85
2023-04-16T03:55:04.193Z,58.09
2023-04-16T03:57:30.441Z,56.72
2023-04-16T03:59:56.723Z,55.37
2023-04-16T04:02:23.225Z,55.29
2023-04-16T04:04:49.739Z,54.04
2023-04-16T04:07:16.001Z,54.44
2023-04-16T04:09:42.269Z,52.93
2023-04-16T04:12:08.513Z,53.54
2023-04-16T04:14:34.764Z,54.30
2023-04-16T04:17:01.039Z,54.75
2023-04-16T04:19:27.323Z,57.33
2023-04-16T04:21:53.569Z,56.33
2023-04-16T04:24:19.849Z,55.88
2023-04-16T04:26:46.103Z,57.15
2023-04-16T04:29:12.430Z,58.08
2023-04-16T04:31:38.812Z,60.64
2023-04-16T04:34:05.118Z,58.29
2023-04-16T04:36:31.378Z,57.14
2023-04-16T04:38:57.637Z,55.52
2023-04-16T04:41:23.879Z,54.95
2023-04-16T04:43:50.134Z,56.95
2023-04-16T04:46:16.424Z,53.91
2023-04-16T04:48:42.678Z,54.16
2023-04-16T04:51:08.922Z,53.43
2023-04-16T04:53:35.175Z,51.23
2023-04-16T04:56:11.116Z,52.47
2023-04-16T04:58:38.848Z,52.20
2023-04-16T05:01:05.115Z,54.68
2023-04-16T05:03:31.504Z,54.57
2023-04-16T05:05:57.867Z,54.17
2023-04-16T05:08:24.134Z,56.14
2023-04-16T05:10:50.468Z,54.57
2023-04-16T05:13:16.769Z,53.44
2023-04-16T05:15:42.993Z,52.66
2023-04-16T05:18:09.243Z,52.06
2023-04-16T05:20:35.483Z,52.26
2023-04-16T05:23:01.811Z,51.98
2023-04-16T05:25:28.168Z,52.79
2023-04-16T05:27:54.414Z,53.98
2023-04-16T05:30:20.682Z,54.87
2023-04-16T05:32:46.960Z,56.13
2023-04-16T05:35:13.927Z,57.60
2023-04-16T05:37:41.514Z,58.24
2023-04-16T05:40:07.752Z,56.10
2023-04-16T05:42:33.983Z,56.14
2023-04-16T05:45:00.271Z,54.90
2023-04-16T05:47:26.574Z,54.74
2023-04-16T05:49:52.953Z,56.70
2023-04-16T05:52:19.253Z,56.33
2023-04-16T05:54:45.504Z,55.12
2023-04-16T05:57:11.739Z,55.90
2023-04-16T05:59:37.983Z,56.48
2023-04-16T06:02:04.428Z,56.18
2023-04-16T06:04:30.770Z,55.45
2023-04-16T06:06:57.026Z,52.80
2023-04-16T06:09:23.280Z,51.81
2023-04-16T06:11:49.548Z,54.05
2023-04-16T06:14:15.762Z,58.28
2023-04-16T06:16:42.000Z,59.17
2023-04-16T06:19:08.740Z,57.67
2023-04-16T06:21:35.171Z,58.48
2023-04-16T06:24:01.456Z,58.15
2023-04-16T06:26:27.728Z,58.04
2023-04-16T06:28:53.973Z,55.91
2023-04-16T06:31:20.216Z,55.80
2023-04-16T06:33:46.511Z,55.21
2023-04-16T06:36:12.800Z,55.28
2023-04-16T06:38:39.042Z,57.41
2023-04-16T06:41:05.305Z,54.42
2023-04-16T06:43:31.627Z,54.02
2023-04-16T06:45:57.857Z,53.16
2023-04-16T06:48:24.069Z,53.28
2023-04-16T06:50:50.317Z,53.75
2023-04-16T06:53:16.591Z,52.74
2023-04-16T06:55:42.847Z,50.64
2023-04-16T06:58:09.077Z,55.18
2023-04-16T07:00:35.427Z,59.73
2023-04-16T07:03:02.035Z,59.68
2023-04-16T07:05:28.563Z,58.76
2023-04-16T07:07:54.879Z,58.15
2023-04-16T07:10:21.094Z,55.54
2023-04-16T07:12:47.329Z,57.04
2023-04-16T07:15:13.580Z,58.56
2023-04-16T07:17:39.879Z,58.58
2023-04-16T07:20:06.193Z,55.13
2023-04-16T07:22:32.449Z,55.08
2023-04-16T07:24:58.683Z,53.34
2023-04-16T07:27:24.945Z,54.28
2023-04-16T07:29:51.217Z,54.46
2023-04-16T07:32:17.513Z,53.57
2023-04-16T07:34:43.768Z,53.78
2023-04-16T07:37:10.029Z,56.04
2023-04-16T07:39:36.263Z,56.46
2023-04-16T07:42:02.541Z,55.67
2023-04-16T07:44:28.819Z,58.41
2023-04-16T07:46:55.133Z,60.06
2023-04-16T07:49:21.435Z,60.54
2023-04-16T07:51:47.674Z,58.68
2023-04-16T07:54:13.946Z,59.25
2023-04-16T07:56:40.234Z,58.68
2023-04-16T07:59:20.987Z,58.24
2023-04-16T08:01:48.723Z,59.47
2023-04-16T08:04:15.106Z,59.09
2023-04-16T08:06:41.484Z,59.49
2023-04-16T08:09:07.909Z,61.58
2023-04-16T08:11:34.287Z,61.02
2023-04-16T08:14:00.518Z,61.53
2023-04-16T08:16:26.825Z,61.58
2023-04-16T08:18:53.135Z,59.98
2023-04-16T08:21:19.449Z,57.52
2023-04-16T08:23:47.387Z,56.01
2023-04-16T08:26:13.645Z,53.25
2023-04-16T08:28:41.073Z,52.39
2023-04-16T08:31:07.443Z,52.60
2023-04-16T08:33:33.710Z,51.26
2023-04-16T08:36:00.061Z,49.81
2023-04-16T08:38:26.339Z,48.81
2023-04-16T08:40:52.572Z,49.06
2023-04-16T08:43:18.831Z,48.05
2023-04-16T08:45:45.076Z,48.66
2023-04-16T08:48:11.337Z,48.42
2023-04-16T08:50:37.601Z,48.08
2023-04-16T08:53:03.850Z,51.35
2023-04-16T08:55:30.156Z,51.22
2023-04-16T08:57:56.404Z,51.27
2023-04-16T09:00:22.692Z,53.84
2023-04-16T09:02:49.121Z,56.34
2023-04-16T09:05:15.619Z,52.08
2023-04-16T09:07:41.870Z,51.68
2023-04-16T09:10:08.210Z,51.25
2023-04-16T09:12:34.457Z,50.21
2023-04-16T09:15:00.736Z,50.02
2023-04-16T09:17:26.986Z,50.06
2023-04-16T09:19:53.276Z,49.60
2023-04-16T09:22:19.565Z,48.24
2023-04-16T09:24:45.809Z,46.92
2023-04-16T09:27:12.060Z,49.01
2023-04-16T09:29:38.324Z,49.78
2023-04-16T09:32:04.652Z,49.48
2023-04-16T09:34:30.929Z,49.31
2023-04-16T09:36:57.182Z,48.66
2023-04-16T09:39:23.449Z,48.81
2023-04-16T09:41:49.763Z,47.53
2023-04-16T09:44:15.994Z,46.76
2023-04-16T09:46:42.274Z,49.59
2023-04-16T09:49:08.968Z,48.97
2023-04-16T09:51:35.345Z,49.49
2023-04-16T09:54:01.569Z,49.51
2023-04-16T09:56:27.811Z,51.46
2023-04-16T09:58:54.054Z,51.70
2023-04-16T10:01:20.376Z,53.34
2023-04-16T10:03:46.769Z,54.13
2023-04-16T10:06:13.221Z,52.64
2023-04-16T10:08:39.445Z,55.68
2023-04-16T10:11:05.691Z,53.58
2023-04-16T10:13:31.934Z,55.36
2023-04-16T10:15:58.188Z,53.28
2023-04-16T10:18:24.443Z,52.85
2023-04-16T10:20:50.667Z,53.20
2023-04-16T10:23:16.923Z,51.24
2023-04-16T10:25:43.152Z,53.91
2023-04-16T10:28:09.374Z,54.08
2023-04-16T10:30:35.665Z,51.40
2023-04-16T10:33:02.042Z,52.16
2023-04-16T10:35:28.384Z,52.46
2023-04-16T10:37:54.636Z,51.55
2023-04-16T10:40:20.876Z,49.86
2023-04-16T10:42:47.296Z,52.82
2023-04-16T10:45:13.559Z,51.84
2023-04-16T10:47:39.861Z,51.75
2023-04-16T10:50:06.148Z,49.44
2023-04-16T10:52:32.392Z,50.24
2023-04-16T10:54:58.628Z,47.89
2023-04-16T10:57:24.912Z,49.72
2023-04-16T10:59:51.179Z,50.94
2023-04-16T11:02:17.627Z,49.31
2023-04-16T11:04:44.249Z,49.31
2023-04-16T11:07:10.606Z,48.53
2023-04-16T11:09:36.900Z,50.38
2023-04-16T11:12:03.136Z,50.03
2023-04-16T11:14:29.403Z,52.06
2023-04-16T11:16:55.625Z,47.78
2023-04-16T11:19:21.894Z,48.90
2023-04-16T11:21:48.150Z,45.79
2023-04-16T11:24:14.396Z,45.77
2023-04-16T11:26:40.658Z,47.41
2023-04-16T11:29:06.905Z,49.88
2023-04-16T11:31:33.219Z,49.06
2023-04-16T11:33:59.532Z,50.94
2023-04-16T11:37:06.239Z,51.21
2023-04-16T11:39:12.219Z,51.82
2023-04-16T11:41:38.635Z,50.86
2023-04-16T11:44:04.898Z,48.29
2023-04-16T11:46:31.184Z,48.78
2023-04-16T11:48:57.430Z,49.60
2023-04-16T11:51:23.931Z,48.41
2023-04-16T11:53:50.394Z,47.50
2023-04-16T11:56:16.636Z,48.04
2023-04-16T11:58:43.408Z,48.18
2023-04-16T12:01:09.763Z,48.43
2023-04-16T12:03:36.275Z,46.29
2023-04-16T12:06:02.716Z,45.57
2023-04-16T12:08:28.968Z,47.43
2023-04-16T12:10:55.205Z,47.39
2023-04-16T12:13:21.416Z,48.32
2023-04-16T12:15:47.758Z,47.68
2023-04-16T12:18:14.049Z,45.96
2023-04-16T12:20:40.303Z,47.42
2023-04-16T12:23:06.604Z,47.91
2023-04-16T12:25:32.888Z,47.86
2023-04-16T12:27:59.105Z,48.42
2023-04-16T12:30:25.333Z,47.15
2023-04-16T12:32:51.864Z,50.53
2023-04-16T12:35:18.368Z,49.15
2023-04-16T12:37:44.615Z,48.22
2023-04-16T12:40:11.015Z,48.37
2023-04-16T12:42:37.299Z,47.73
2023-04-16T12:45:03.542Z,47.18
2023-04-16T12:47:29.799Z,47.56
2023-04-16T12:49:56.098Z,45.68
2023-04-16T12:52:23.768Z,46.48
2023-04-16T12:54:50.161Z,47.56
2023-04-16T12:57:16.418Z,45.83
2023-04-16T12:59:42.668Z,46.67
2023-04-16T13:02:09.102Z,44.30
2023-04-16T13:04:35.517Z,46.02
2023-04-16T13:07:01.855Z,45.31
2023-04-16T13:09:28.103Z,46.10
2023-04-16T13:11:54.351Z,46.93
2023-04-16T13:14:20.603Z,46.02
2023-04-16T13:16:46.863Z,45.45
2023-04-16T13:19:13.300Z,44.80
2023-04-16T13:21:39.770Z,42.68
2023-04-16T13:24:06.063Z,44.49
2023-04-16T13:26:32.393Z,44.06
2023-04-16T13:28:58.630Z,43.12
2023-04-16T13:31:24.934Z,45.12
2023-04-16T13:33:51.195Z,46.27
2023-04-16T13:36:17.466Z,46.28
2023-04-16T13:38:43.727Z,46.13
2023-04-16T13:41:09.953Z,45.22
2023-04-16T13:43:36.198Z,46.22
2023-04-16T13:46:02.428Z,46.13
2023-04-16T13:48:28.708Z,44.22
2023-04-16T13:50:55.017Z,42.94
2023-04-16T13:53:21.256Z,44.87
2023-04-16T13:55:47.492Z,42.85
2023-04-16T13:58:13.732Z,44.74
2023-04-16T14:00:39.974Z,43.63
2023-04-16T14:03:06.324Z,44.93
2023-04-16T14:05:32.696Z,45.32
2023-04-16T14:07:58.928Z,44.21
2023-04-16T14:10:25.186Z,44.63
2023-04-16T14:12:51.453Z,47.70
2023-04-16T14:15:17.705Z,47.05
2023-04-16T14:17:44.094Z,44.84
2023-04-16T14:20:10.393Z,44.56
2023-04-16T14:22:36.629Z,46.43
2023-04-16T14:25:02.911Z,46.90
2023-04-16T14:27:29.212Z,45.76
2023-04-16T14:29:55.455Z,45.17
2023-04-16T14:32:21.708Z,46.47
2023-04-16T14:34:47.963Z,42.47
2023-04-16T14:37:14.237Z,42.15
2023-04-16T14:39:40.545Z,40.54
2023-04-16T14:42:06.786Z,41.66
2023-04-16T14:44:33.048Z,42.13
2023-04-16T14:46:59.336Z,46.13
2023-04-16T14:49:25.579Z,44.81
2023-04-16T14:51:51.823Z,42.22
2023-04-16T14:54:18.011Z,43.54
2023-04-16T14:56:44.301Z,43.27
2023-04-16T14:59:10.900Z,43.40
2023-04-16T15:01:37.414Z,44.73
2023-04-16T15:04:03.892Z,42.24
2023-04-16T15:06:30.220Z,43.24
2023-04-16T15:08:56.477Z,42.20
2023-04-16T15:11:22.741Z,42.32
2023-04-16T15:13:49.024Z,43.07
2023-04-16T15:16:15.274Z,42.56
2023-04-16T15:18:41.532Z,42.92
2023-04-16T15:21:08.172Z,43.41
2023-04-16T15:23:35.362Z,43.86
2023-04-16T15:26:01.726Z,43.41
2023-04-16T15:28:28.001Z,43.59
2023-04-16T15:30:54.298Z,41.90
2023-04-16T15:33:20.548Z,40.64
2023-04-16T15:35:46.809Z,42.46
2023-04-16T15:38:13.075Z,43.11
2023-04-16T15:40:39.318Z,42.89
2023-04-16T15:43:05.573Z,42.44
2023-04-16T15:45:31.830Z,44.12
2023-04-16T15:47:58.208Z,42.01
2023-04-16T15:50:24.589Z,44.40
2023-04-16T15:52:50.827Z,44.31
2023-04-16T15:55:17.072Z,42.88
2023-04-16T15:57:43.322Z,42.69
2023-04-16T16:00:11.239Z,44.32
2023-04-16T16:02:38.942Z,41.69
2023-04-16T16:05:05.330Z,42.35
2023-04-16T16:07:31.611Z,42.06
2023-04-16T16:09:57.832Z,41.48
2023-04-16T16:12:24.088Z,43.55
2023-04-16T16:14:50.385Z,43.62
2023-04-16T16:17:16.701Z,42.80
2023-04-16T16:19:44.638Z,42.76
2023-04-16T16:22:12.105Z,42.79
2023-04-16T16:24:38.331Z,43.23
2023-04-16T16:27:04.598Z,43.36
2023-04-16T16:29:30.869Z,43.43
2023-04-16T16:31:57.132Z,43.84
2023-04-16T16:34:23.419Z,43.73
2023-04-16T16:36:49.733Z,42.33
2023-04-16T16:39:15.955Z,43.43
2023-04-16T16:41:42.187Z,43.14
2023-04-16T16:44:08.424Z,41.38
2023-04-16T16:46:34.693Z,41.42
2023-04-16T16:49:00.920Z,44.19
2023-04-16T16:51:27.144Z,44.13
2023-04-16T16:53:53.393Z,43.96
2023-04-16T16:56:19.623Z,43.05
2023-04-16T16:58:45.862Z,43.98
2023-04-16T17:01:12.173Z,43.60
2023-04-16T17:03:38.592Z,42.57
2023-04-16T17:06:04.892Z,42.94
2023-04-16T17:08:31.134Z,44.37
2023-04-16T17:10:57.424Z,45.16
2023-04-16T17:13:23.708Z,44.84
2023-04-16T17:15:49.965Z,44.61
2023-04-16T17:18:17.888Z,46.45
2023-04-16T17:20:44.200Z,47.63
2023-04-16T17:23:10.433Z,47.28
2023-04-16T17:25:36.694Z,46.36
2023-04-16T17:28:02.999Z,49.42
2023-04-16T17:30:29.236Z,48.37
2023-04-16T17:32:55.517Z,47.86
2023-04-16T17:35:21.770Z,47.30
2023-04-16T17:37:48.006Z,47.46
2023-04-16T17:40:14.262Z,46.53
2023-04-16T17:42:40.506Z,46.32
2023-04-16T17:45:06.764Z,46.16
2023-04-16T17:47:33.037Z,46.78
2023-04-16T17:49:59.299Z,46.10
2023-04-16T17:52:25.535Z,46.95
2023-04-16T17:54:51.764Z,46.21
2023-04-16T17:57:18.009Z,46.01
2023-04-16T17:59:44.268Z,51.23
2023-04-16T18:02:10.612Z,54.17
2023-04-16T18:04:37.175Z,55.17
2023-04-16T18:07:03.575Z,53.68
2023-04-16T18:09:29.813Z,53.10
2023-04-16T18:11:56.054Z,53.24
2023-04-16T18:14:22.337Z,53.16
2023-04-16T18:16:48.639Z,53.25
2023-04-16T18:19:14.920Z,55.30
2023-04-16T18:21:41.230Z,55.01
2023-04-16T18:24:07.520Z,53.58
2023-04-16T18:26:35.822Z,55.56
2023-04-16T18:29:03.076Z,55.45
2023-04-16T18:31:29.425Z,53.69
2023-04-16T18:33:58.096Z,50.82
2023-04-16T18:36:24.698Z,51.24
2023-04-16T18:39:00.932Z,49.90
2023-04-16T18:41:28.311Z,53.91
2023-04-16T18:43:54.579Z,53.56
2023-04-16T18:46:20.892Z,53.92
2023-04-16T18:48:47.232Z,54.81
2023-04-16T18:51:15.956Z,54.01
2023-04-16T18:53:42.728Z,53.33
2023-04-16T18:56:09.001Z,53.35
2023-04-16T18:58:35.252Z,53.17
2023-04-16T19:01:01.632Z,53.21
2023-04-16T19:03:28.061Z,54.28
2023-04-16T19:05:54.445Z,55.93
2023-04-16T19:08:20.737Z,55.32
2023-04-16T19:10:47.077Z,53.99
2023-04-16T19:13:13.380Z,55.37
2023-04-16T19:15:39.722Z,57.03
2023-04-16T19:18:06.031Z,56.80
2023-04-16T19:20:32.288Z,57.59
2023-04-16T19:22:58.550Z,56.08
2023-04-16T19:25:24.831Z,54.56
2023-04-16T19:27:51.082Z,58.51
2023-04-16T19:30:17.349Z,58.34
2023-04-16T19:32:43.637Z,57.66
2023-04-16T19:35:10.021Z,58.42
2023-04-16T19:37:36.368Z,57.90
2023-04-16T19:40:02.624Z,57.19
2023-04-16T19:42:28.993Z,58.09
2023-04-16T19:44:55.253Z,57.44
2023-04-16T19:47:21.555Z,57.23
2023-04-16T19:49:47.821Z,58.01
2023-04-16T19:52:14.068Z,57.62
2023-04-16T19:54:40.315Z,56.99
2023-04-16T19:57:06.592Z,57.52
2023-04-16T19:59:32.925Z,56.13
2023-04-16T20:01:59.258Z,56.61
2023-04-16T20:04:25.569Z,56.38
2023-04-16T20:06:51.928Z,56.46
2023-04-16T20:09:18.200Z,55.90
2023-04-16T20:11:44.442Z,56.75
2023-04-16T20:14:10.727Z,56.17
2023-04-16T20:16:37.026Z,56.77
2023-04-16T20:19:05.246Z,56.87
2023-04-16T20:21:33.465Z,54.96
2023-04-16T20:23:59.711Z,56.37
2023-04-16T20:26:25.947Z,56.83
2023-04-16T20:28:52.185Z,57.07
2023-04-16T20:31:18.462Z,56.84
2023-04-16T20:33:44.902Z,56.92
2023-04-16T20:36:11.166Z,57.16
2023-04-16T20:38:37.410Z,57.81
2023-04-16T20:41:03.652Z,57.70
2023-04-16T20:43:29.929Z,58.76
2023-04-16T20:45:56.319Z,61.46
2023-04-16T20:48:22.646Z,60.79
2023-04-16T20:50:48.925Z,59.08
2023-04-16T20:53:15.143Z,60.18
2023-04-16T20:55:41.370Z,59.63
2023-04-16T20:58:07.595Z,59.03
2023-04-16T21:00:33.878Z,59.04
2023-04-16T21:03:00.385Z,59.93
2023-04-16T21:05:26.720Z,60.21
2023-04-16T21:07:55.343Z,61.97
2023-04-16T21:10:22.067Z,63.01
2023-04-16T21:12:48.287Z,63.24
2023-04-16T21:15:14.507Z,66.31
2023-04-16T21:17:40.839Z,65.77
2023-04-16T21:20:07.164Z,64.00
2023-04-16T21:22:33.432Z,62.93
2023-04-16T21:24:59.676Z,63.26
2023-04-16T21:27:25.911Z,61.22
2023-04-16T21:29:52.151Z,62.09
2023-04-16T21:32:18.410Z,61.13
2023-04-16T21:34:44.643Z,61.42
2023-04-16T21:37:10.893Z,60.50
2023-04-16T21:39:37.169Z,60.04
2023-04-16T21:42:03.387Z,59.17
2023-04-16T21:44:29.626Z,59.15
2023-04-16T21:46:55.890Z,58.96
2023-04-16T21:49:22.162Z,58.77
2023-04-16T21:51:48.379Z,59.24
2023-04-16T21:54:14.617Z,59.25
2023-04-16T21:56:40.841Z,59.38
2023-04-16T21:59:07.136Z,58.16
2023-04-16T22:01:33.479Z,58.41
2023-04-16T22:03:59.930Z,58.10
2023-04-16T22:06:26.236Z,58.03
2023-04-16T22:08:52.463Z,58.99
2023-04-16T22:11:18.688Z,58.83
2023-04-16T22:13:44.913Z,59.51
2023-04-16T22:16:11.860Z,60.34
2023-04-16T22:18:38.294Z,59.79
2023-04-16T22:21:04.515Z,60.10
2023-04-16T22:23:30.745Z,60.81
2023-04-16T22:25:56.989Z,61.28
2023-04-16T22:28:23.311Z,62.46
2023-04-16T22:30:49.587Z,63.22
2023-04-16T22:33:15.927Z,62.77
2023-04-16T22:35:42.260Z,62.92
2023-04-16T22:38:08.489Z,64.62
2023-04-16T22:40:34.717Z,63.74
2023-04-16T22:43:00.969Z,63.01
2023-04-16T22:45:27.227Z,62.89
2023-04-16T22:47:53.491Z,62.87
2023-04-16T22:50:19.821Z,62.43
2023-04-16T22:52:46.037Z,64.23
2023-04-16T22:55:12.275Z,62.36
2023-04-16T22:57:38.546Z,61.78
2023-04-16T23:00:04.794Z,62.67
2023-04-16T23:02:31.124Z,63.16
2023-04-16T23:04:57.394Z,62.81
2023-04-16T23:07:23.637Z,63.87
2023-04-16T23:09:49.876Z,64.87
2023-04-16T23:12:16.126Z,63.39
2023-04-16T23:14:42.356Z,63.06
2023-04-16T23:17:08.639Z,63.18
2023-04-16T23:19:34.940Z,65.90
2023-04-16T23:22:01.199Z,66.54
2023-04-16T23:24:27.458Z,66.65
2023-04-16T23:26:53.742Z,67.16
2023-04-16T23:29:19.973Z,66.62
2023-04-16T23:31:46.286Z,68.17
2023-04-16T23:34:12.549Z,68.02
2023-04-16T23:36:38.805Z,68.28
2023-04-16T23:39:05.051Z,69.13
2023-04-16T23:41:31.288Z,69.57
2023-04-16T23:43:57.572Z,69.84
2023-04-16T23:46:23.863Z,69.80
2023-04-16T23:48:50.161Z,69.63
2023-04-16T23:51:16.400Z,69.32
2023-04-16T23:53:42.626Z,68.87
2023-04-16T23:56:08.847Z,65.63
2023-04-16T23:58:35.113Z,67.66
